Airfield :
LOGIN :

Register | Disclaimer

   EN    FR    IT 

 










Legend :    VFR   Marginal VFR   IFR   Intensive IFR   Very Intensive IFR
Visi :
Ceiling :
>= 8 km
>= 3000ft
5 to 8 km
1000 to 3000 ft
1500m to 5 km
500 to 1000 ft
800 to 1500m
200 to 500 ft
< 800m
< 200 ft
Symbols :   Thunderstorms  Fog  Heavy snow  Heavy precipitations  Wind > 20 kt
SIGMETs :     Misc.  Thunderstorms  Icing  Turbulence  Mountain Waves  Volcanic Ashes







- Airport Elevation : 219 ft
- IATA code : DNR
- Download approach charts


LFRD - Dinard

CURRENT METAR :
  • 112230Z AUTO 17010KT 7000 OVC007 05/04 Q1021 TEMPO 3000 BR

EXPIRED METARs :
  • 112200Z AUTO 16010KT 8000 OVC007 05/04 Q1021 TEMPO 3000 BR
  • 112130Z AUTO 16009KT 7000 OVC006 05/04 Q1021 TEMPO 3000 BR
  • 112100Z AUTO 16008KT 7000 BKN006 BKN190 05/04 Q1021 TEMPO 3000 BR
  • 112030Z AUTO 16007KT 120V180 8000 FEW007 BKN140 OVC200 05/04 Q1021 TEMPO 3000 BR BKN005
  • 112000Z AUTO 14009KT 110V170 6000 OVC005 05/04 Q1021 TEMPO 3000 BR

TAF TAF LFRD
Valid from the 11 at 18:00 until the 12 at 18:00 UTC


111700Z 1118/1218 15010KT 6000 SCT030
TEMPO 1118/1202 3000 BR BKN005
BECMG 1200/1202 5000 RA BKN015
TEMPO 1202/1208 3000 RA BKN005
BECMG 1209/1212 9999 NSW BKN030
ATIS : +33 2 99 16 81 50
No reported NOTAMs for that airfield.
3 SIGMETs reported for the Brest FIR (LFRR) :
 
Severe turbulence
LFRR SIGMET 3 VALID 120000/120400 LFPW
LFRR BREST FIR/UIR SEV TURB FCST WI N4830 W00800 - N4900 W00800 - N4915 W00715 - N4730 W00600 - N4715 W00715 - N4830 W00800 FL170/280 MOV E 15KT INTSF=
SIGMET 1  cancelation
LFRR SIGMET 2 VALID 112220/120400 LFPW
LFRR BREST FIR/UIR CNL SIGMET 1 120000/120400=
SIGMET 1  CANCELED :
Severe turbulence
LFRR SIGMET 1 VALID 120000/120400 LFPW
LFRR BREST FIR/UIR SEV TURB FCST WI N4830 W00800 - N4900 W00800 - N4915 W00715 - N4800 W00630 - N4730 W00700 - N4830 W00800 FL170/280 MOV E 15KT INTSF=



MET'MAP, your aeronautical weather chart ! - Copyright ORBIFLY December 2007 - Disclaimer

ORBIFLY MET'MAP TEAM :

Programming & Development : Alexandra Zaïnal
Concept & Development : Baudouin d'Aumeries
Co-Development & Prog : Marc-Olivier Méhu
Technical & hardware support : Manuel Goepfert

Contact : metmap@orbifly.com




SOURCES & CREDITS :

   NOAA